Time;durP1;ratioP1;P1;durP2;ratioP2;P2;SDS_P1;SDS_P2;PMS_P1;PMS_P2;Temp;Humidity;BMP_temperature;BMP_pressure;BME280_temperature;BME280_humidity;BME280_pressure;Samples;Min_cycle;Max_cycle;Signal;HPM_P1;HPM_P2
2021/08/09 00:02:33;;;;;;;3.88;1.70;;;;;;;7.97;83.35;91061.63;5075494;28;20407;-87
2021/08/09 00:05:11;;;;;;;3.15;1.27;;;;;;;7.89;83.21;91041.63;5072494;28;20036;-84
2021/08/09 00:07:42;;;;;;;2.58;1.23;;;;;;;7.89;83.21;91057.22;5074791;28;20103;-84
2021/08/09 00:10:19;;;;;;;4.60;1.42;;;;;;;7.88;82.94;91060.88;5073597;28;20029;-84
2021/08/09 00:12:58;;;;;;;1.95;1.17;;;;;;;7.89;83.51;91052.03;5041477;28;20024;-84
2021/08/09 00:15:38;;;;;;;5.05;1.90;;;;;;;7.81;83.57;91052.78;5059366;28;20024;-85
2021/08/09 00:18:14;;;;;;;2.50;1.20;;;;;;;7.75;83.51;91056.63;5074109;28;20028;-85
2021/08/09 00:20:53;;;;;;;3.25;1.30;;;;;;;7.75;84.31;91051.44;5058974;28;20106;-86
2021/08/09 00:23:35;;;;;;;1.98;1.27;;;;;;;7.80;84.57;91056.44;5058900;28;20503;-86
2021/08/09 00:26:16;;;;;;;2.38;1.05;;;;;;;7.78;83.89;91056.75;5075606;28;20091;-84
2021/08/09 00:28:56;;;;;;;4.18;1.38;;;;;;;7.88;84.29;91058.28;5075828;28;20028;-86
2021/08/09 00:31:37;;;;;;;5.60;1.20;;;;;;;7.81;84.42;91047.59;5042159;28;20025;-86
2021/08/09 00:34:19;;;;;;;4.07;1.20;;;;;;;7.72;83.95;91055.38;5059020;28;20020;-85
2021/08/09 00:36:53;;;;;;;5.07;1.55;;;;;;;7.62;83.45;91046.06;5059492;28;20099;-85
2021/08/09 00:39:34;;;;;;;2.42;1.35;;;;;;;7.57;83.55;91043.66;5058268;28;20404;-86
2021/08/09 00:42:10;;;;;;;2.55;1.40;;;;;;;7.44;83.59;91039.38;5059199;28;20040;-86
2021/08/09 00:44:50;;;;;;;3.83;1.52;;;;;;;7.33;83.26;91040.75;5042477;28;20021;-85
2021/08/09 00:47:27;;;;;;;2.20;1.17;;;;;;;7.24;83.65;91050.34;5058568;28;20044;-86
2021/08/09 00:50:04;;;;;;;4.78;1.15;;;;;;;7.29;83.91;91050.19;5058859;28;20024;-86
2021/08/09 00:52:40;;;;;;;4.07;1.45;;;;;;;7.28;83.51;91041.66;5059309;28;20020;-86
2021/08/09 00:55:14;;;;;;;3.08;1.30;;;;;;;7.25;83.95;91047.44;5043020;28;20028;-86
2021/08/09 00:57:54;;;;;;;4.55;1.45;;;;;;;7.23;83.83;91044.38;5059942;28;20384;-86
2021/08/09 01:00:34;;;;;;;4.95;1.40;;;;;;;7.18;84.30;91042.72;5059784;28;20024;-86
2021/08/09 01:03:16;;;;;;;2.20;1.38;;;;;;;7.22;83.43;91045.47;5075630;28;20433;-86
2021/08/09 01:05:51;;;;;;;2.15;1.33;;;;;;;7.18;84.02;91047.13;5060824;28;20107;-87
2021/08/09 01:08:34;;;;;;;4.75;1.50;;;;;;;7.11;83.92;91059.78;5061091;28;20111;-86
2021/08/09 01:11:18;;;;;;;3.05;1.33;;;;;;;7.04;84.66;91055.03;5076025;28;20257;-86
2021/08/09 01:14:28;;;;;;;3.30;1.40;;;;;;;7.10;84.02;91050.47;5077280;28;20033;-86
2021/08/09 01:17:09;;;;;;;3.63;1.38;;;;;;;7.04;84.50;91054.28;5107294;28;20032;-85
2021/08/09 01:20:04;;;;;;;2.60;1.25;;;;;;;6.98;84.44;91052.91;5058686;28;20099;-85
2021/08/09 01:22:58;;;;;;;2.50;1.35;;;;;;;6.99;84.70;91052.59;5088477;28;20020;-84
2021/08/09 01:26:04;;;;;;;3.50;1.38;;;;;;;6.90;84.82;91044.03;5073392;28;20022;-85
2021/08/09 01:28:43;;;;;;;3.97;1.20;;;;;;;7.06;85.32;91042.53;5072322;28;20040;-85
2021/08/09 01:31:18;;;;;;;6.18;1.45;;;;;;;6.92;84.49;91045.25;5055807;28;20048;-84
2021/08/09 01:34:00;;;;;;;1.73;1.10;;;;;;;6.93;84.49;91044.19;5056515;28;20028;-84
2021/08/09 01:36:36;;;;;;;6.13;1.60;;;;;;;6.87;84.01;91037.63;5039384;28;20028;-84
2021/08/09 01:39:11;;;;;;;2.78;1.13;;;;;;;6.80;84.92;91041.72;5055726;28;20016;-85
2021/08/09 01:41:50;;;;;;;3.15;1.25;;;;;;;6.80;86.42;91049.50;5056295;28;20047;-84
2021/08/09 01:44:27;;;;;;;3.10;1.50;;;;;;;6.81;86.49;91028.47;5039894;28;20107;-84
2021/08/09 01:47:07;;;;;;;4.22;1.20;;;;;;;6.82;86.59;91039.59;5039051;28;20157;-84
2021/08/09 01:49:43;;;;;;;3.88;1.55;;;;;;;6.78;86.39;91038.66;5055590;28;20468;-85
2021/08/09 01:52:20;;;;;;;2.03;1.15;;;;;;;6.79;85.65;91037.63;5055309;28;20024;-84
2021/08/09 01:54:57;;;;;;;4.00;1.80;;;;;;;6.69;85.54;91039.41;5055226;28;20024;-84
2021/08/09 01:57:33;;;;;;;3.65;1.23;;;;;;;6.74;84.80;91043.69;5039321;28;20028;-85
2021/08/09 02:00:12;;;;;;;2.83;1.27;;;;;;;6.77;84.81;91047.50;5054464;28;20041;-85
2021/08/09 02:02:51;;;;;;;3.03;1.13;;;;;;;6.74;84.78;91042.94;5071588;28;20054;-84
2021/08/09 02:05:23;;;;;;;3.65;1.50;;;;;;;6.64;85.86;91036.97;5071663;28;20028;-84
2021/08/09 02:07:55;;;;;;;2.67;1.35;;;;;;;6.62;86.19;91043.50;5071466;28;20032;-84
2021/08/09 02:10:32;;;;;;;2.50;1.30;;;;;;;6.63;85.46;91032.84;5054236;28;20104;-85
2021/08/09 02:13:24;;;;;;;4.05;1.27;;;;;;;6.55;84.80;91035.41;5038787;28;20396;-84
2021/08/09 02:16:04;;;;;;;2.67;1.48;;;;;;;6.52;85.13;91047.13;5072377;28;20021;-84
2021/08/09 02:18:58;;;;;;;5.00;1.30;;;;;;;6.49;85.03;91042.53;5072877;28;20028;-84
2021/08/09 02:21:49;;;;;;;1.88;1.27;;;;;;;6.41;85.48;91035.50;5071235;28;20028;-84
2021/08/09 02:24:42;;;;;;;2.05;1.10;;;;;;;6.47;84.93;91029.16;5071436;28;20066;-84
2021/08/09 02:27:20;;;;;;;4.40;1.50;;;;;;;6.37;86.68;91034.59;5056714;28;20451;-84
2021/08/09 02:29:56;;;;;;;4.68;1.30;;;;;;;6.48;87.30;91053.97;5054804;28;20024;-84
2021/08/09 02:32:26;;;;;;;3.60;1.50;;;;;;;6.86;86.48;91043.13;5055098;28;20021;-84
2021/08/09 02:35:07;;;;;;;4.13;1.75;;;;;;;6.68;87.37;91047.50;5053760;28;20020;-84
2021/08/09 02:37:43;;;;;;;2.90;1.50;;;;;;;6.64;87.08;91049.94;5055352;28;20028;-84
2021/08/09 02:40:20;;;;;;;4.15;1.60;;;;;;;6.74;87.47;91053.28;5054581;28;20052;-85
2021/08/09 02:42:58;;;;;;;6.18;1.50;;;;;;;6.65;87.10;91038.50;5054854;28;20485;-84
2021/08/09 02:45:31;;;;;;;1.95;1.35;;;;;;;6.74;86.64;91054.03;5070959;28;20469;-84
2021/08/09 02:48:04;;;;;;;4.53;1.70;;;;;;;6.65;85.99;91042.91;5070216;28;20115;-84
2021/08/09 02:50:41;;;;;;;1.35;1.10;;;;;;;6.54;85.84;91050.19;5036921;28;20029;-84
2021/08/09 02:53:23;;;;;;;2.22;1.20;;;;;;;6.66;87.85;91052.97;5055025;28;20032;-84
2021/08/09 02:56:03;;;;;;;2.92;1.52;;;;;;;6.80;88.59;91052.09;5056364;28;20048;-85
2021/08/09 02:58:38;;;;;;;4.03;1.83;;;;;;;6.82;88.67;91049.94;5071022;28;20024;-84
2021/08/09 03:01:21;;;;;;;2.88;1.48;;;;;;;6.84;87.46;91048.59;5054694;28;20458;-85
2021/08/09 03:03:58;;;;;;;5.80;1.40;;;;;;;6.79;86.32;91040.97;5070654;28;20024;-84
2021/08/09 03:06:36;;;;;;;3.40;1.50;;;;;;;6.73;87.61;91036.22;5055564;28;20017;-84
2021/08/09 03:09:04;;;;;;;5.47;1.90;;;;;;;6.99;89.22;91031.09;5038800;28;20485;-84
2021/08/09 03:11:44;;;;;;;3.60;1.50;;;;;;;7.12;89.41;91030.19;5056766;28;20086;-84
2021/08/09 03:14:30;;;;;;;7.35;1.90;;;;;;;7.35;88.54;91030.81;5060024;28;20032;-85
2021/08/09 03:17:13;;;;;;;4.70;1.80;;;;;;;7.33;89.16;91041.50;5075145;28;20500;-84
2021/08/09 03:19:51;;;;;;;4.82;1.83;;;;;;;7.26;89.04;91040.44;5075011;28;20060;-85
2021/08/09 03:22:28;;;;;;;5.43;1.60;;;;;;;7.28;88.96;91040.88;5075815;28;20025;-85
2021/08/09 03:25:07;;;;;;;4.45;1.75;;;;;;;7.57;88.48;91048.06;5069148;28;20020;-87
2021/08/09 03:27:44;;;;;;;5.18;1.50;;;;;;;7.31;87.09;91045.47;5070108;28;20021;-84
2021/08/09 03:30:21;;;;;;;2.90;1.27;;;;;;;7.18;86.42;91060.84;5056497;28;20017;-83
2021/08/09 03:33:02;;;;;;;2.33;1.17;;;;;;;7.04;86.40;91052.44;5038698;28;20032;-84
2021/08/09 03:35:38;;;;;;;4.30;1.48;;;;;;;7.10;87.49;91051.25;5038489;28;20115;-84
2021/08/09 03:38:15;;;;;;;4.07;1.70;;;;;;;7.22;87.85;91036.94;5038136;28;20021;-84
2021/08/09 03:41:01;;;;;;;4.63;1.77;;;;;;;7.22;88.27;91039.53;5053445;28;20032;-83
2021/08/09 03:43:36;;;;;;;6.00;1.60;;;;;;;7.28;88.80;91041.66;5038823;28;20025;-84
2021/08/09 03:46:23;;;;;;;4.28;1.73;;;;;;;7.35;89.24;91047.16;5038487;28;20032;-84
2021/08/09 03:49:07;;;;;;;3.80;1.60;;;;;;;7.45;89.10;91046.06;5055997;28;20037;-84
2021/08/09 03:51:44;;;;;;;5.73;1.63;;;;;;;7.45;88.68;91045.31;5073700;28;20582;-85
2021/08/09 03:54:14;;;;;;;4.15;1.70;;;;;;;7.33;88.44;91048.53;5073394;28;20273;-84
2021/08/09 03:56:54;;;;;;;3.05;1.80;;;;;;;7.35;88.91;91047.16;5057038;28;20024;-84
2021/08/09 03:59:34;;;;;;;3.17;1.58;;;;;;;7.38;88.38;91038.75;5057753;28;20045;-84
2021/08/09 04:02:14;;;;;;;3.92;1.73;;;;;;;7.42;88.99;91038.94;5074598;28;20020;-84
2021/08/09 04:04:54;;;;;;;5.25;1.45;;;;;;;7.42;88.09;91039.69;5058554;28;20115;-84
2021/08/09 04:07:34;;;;;;;6.30;1.98;;;;;;;7.35;88.39;91041.97;5074370;28;20035;-84
2021/08/09 04:10:11;;;;;;;7.35;1.90;;;;;;;7.45;88.82;91035.69;5073079;28;20024;-84
2021/08/09 04:12:48;;;;;;;5.03;2.10;;;;;;;7.39;87.67;91039.53;5102882;23;20012;-87
2021/08/09 04:15:25;;;;;;;6.15;2.53;;;;;;;7.53;89.26;91032.38;5037068;28;20068;-87
2021/08/09 04:18:05;;;;;;;4.53;1.90;;;;;;;7.60;89.27;91022.28;5053045;28;20099;-87
2021/08/09 04:20:43;;;;;;;5.07;1.65;;;;;;;7.65;89.09;91031.75;5037105;28;20029;-87
2021/08/09 04:23:18;;;;;;;3.17;2.00;;;;;;;7.62;89.45;91046.06;5035664;28;20025;-87
2021/08/09 04:25:58;;;;;;;4.28;1.80;;;;;;;7.69;88.90;91045.63;5020911;28;20017;-87
2021/08/09 04:28:38;;;;;;;4.35;1.60;;;;;;;7.70;88.56;91036.00;5052943;28;20025;-88
2021/08/09 04:31:21;;;;;;;4.00;1.80;;;;;;;7.61;88.68;91039.38;5036964;28;20029;-87
2021/08/09 04:33:56;;;;;;;7.72;2.00;;;;;;;7.64;88.87;91043.19;5037727;28;20021;-87
2021/08/09 04:36:34;;;;;;;3.20;1.60;;;;;;;7.70;88.35;91056.75;5020606;28;20035;-87
2021/08/09 04:39:10;;;;;;;4.85;1.63;;;;;;;7.92;87.50;91054.00;5020362;28;20049;-87
2021/08/09 04:41:54;;;;;;;5.28;1.67;;;;;;;7.86;87.75;91050.03;5020534;28;20032;-87
2021/08/09 04:44:38;;;;;;;2.58;1.80;;;;;;;7.77;87.52;91062.25;5037257;28;20037;-87
2021/08/09 04:47:14;;;;;;;3.53;1.75;;;;;;;7.83;87.78;91063.63;5040500;28;20025;-87
2021/08/09 04:49:52;;;;;;;2.88;1.75;;;;;;;7.81;87.91;91060.56;5053220;28;20032;-88
2021/08/09 04:52:21;;;;;;;3.92;1.77;;;;;;;7.89;88.04;91055.38;5035607;28;20031;-87
2021/08/09 04:55:00;;;;;;;4.05;1.90;;;;;;;7.97;87.70;91050.47;5036016;28;20029;-87
2021/08/09 04:57:39;;;;;;;4.53;1.88;;;;;;;7.92;87.65;91037.69;5036565;28;20033;-88
2021/08/09 05:00:19;;;;;;;3.63;1.83;;;;;;;8.03;88.35;91033.69;5020275;28;20385;-87
2021/08/09 05:02:57;;;;;;;3.95;2.15;;;;;;;8.17;87.78;91038.69;5019546;28;20032;-87
2021/08/09 05:05:38;;;;;;;4.18;2.00;;;;;;;8.29;87.27;91042.16;5019759;28;20017;-87
2021/08/09 05:08:22;;;;;;;4.53;2.05;;;;;;;8.38;88.09;91050.72;5036507;28;20494;-87
2021/08/09 05:11:01;;;;;;;11.30;2.22;;;;;;;8.46;87.22;91062.16;5035387;28;20024;-87
2021/08/09 05:13:39;;;;;;;3.42;1.80;;;;;;;8.54;86.69;91069.13;5052205;28;20114;-87
2021/08/09 05:16:22;;;;;;;4.55;1.92;;;;;;;8.57;86.33;91055.53;5020296;28;20052;-87
2021/08/09 05:19:01;;;;;;;4.30;1.50;;;;;;;8.63;86.56;91060.56;5054079;28;20100;-88
2021/08/09 05:21:35;;;;;;;3.00;1.55;;;;;;;8.66;85.71;91067.72;5050927;28;20024;-87
2021/08/09 05:24:10;;;;;;;4.43;1.40;;;;;;;8.74;85.69;91061.75;5048480;28;20016;-92
2021/08/09 05:26:50;;;;;;;5.45;1.80;;;;;;;8.77;85.61;91058.53;5061924;28;20009;-89
2021/08/09 05:29:29;;;;;;;4.10;2.33;;;;;;;8.84;85.89;91064.00;5064670;28;20033;-87
2021/08/09 05:32:08;;;;;;;3.65;1.77;;;;;;;8.92;86.25;91062.41;5035665;28;20028;-87
2021/08/09 05:34:40;;;;;;;5.50;1.98;;;;;;;9.05;85.77;91057.00;5035243;28;20021;-87
2021/08/09 05:37:19;;;;;;;3.80;1.80;;;;;;;9.14;86.04;91043.19;5035023;28;20025;-88
2021/08/09 05:40:02;;;;;;;3.05;1.48;;;;;;;9.23;85.86;91046.50;5035578;28;20416;-88
2021/08/09 05:42:36;;;;;;;4.25;1.50;;;;;;;9.33;86.11;91048.75;5035746;28;20029;-88
2021/08/09 05:45:14;;;;;;;6.97;1.80;;;;;;;9.35;86.32;91038.75;5051139;28;20682;-87
2021/08/09 05:47:54;;;;;;;4.13;1.50;;;;;;;9.51;85.53;91042.31;5037205;28;20028;-88
2021/08/09 05:50:29;;;;;;;5.32;1.88;;;;;;;9.77;85.24;91062.19;5051495;28;20020;-87
2021/08/09 05:53:08;;;;;;;5.43;1.52;;;;;;;9.85;84.90;91053.53;5036250;28;20020;-88
2021/08/09 05:55:49;;;;;;;3.33;1.90;;;;;;;10.09;84.25;91059.91;5035945;28;20496;-87
2021/08/09 05:58:28;;;;;;;3.42;1.60;;;;;;;10.15;84.28;91054.19;5050956;28;20107;-87
2021/08/09 06:01:05;;;;;;;2.97;1.33;;;;;;;10.33;83.92;91064.47;5050460;28;20076;-87
2021/08/09 06:03:46;;;;;;;4.13;1.63;;;;;;;10.55;83.76;91065.91;5034974;28;20052;-87
2021/08/09 06:06:29;;;;;;;2.50;1.52;;;;;;;10.63;83.59;91049.41;5035388;28;20473;-87
2021/08/09 06:09:07;;;;;;;2.90;1.55;;;;;;;10.83;82.85;91055.63;5051442;28;20033;-87
2021/08/09 06:11:49;;;;;;;2.92;1.60;;;;;;;11.00;82.29;91045.75;5034666;28;20025;-87
2021/08/09 06:14:30;;;;;;;2.95;1.52;;;;;;;11.25;81.41;91061.38;5034929;28;20029;-87
2021/08/09 06:17:07;;;;;;;8.70;2.00;;;;;;;11.29;81.86;91053.66;5034988;28;20029;-87
2021/08/09 06:19:46;;;;;;;5.63;1.60;;;;;;;11.42;80.95;91049.97;5050921;28;20485;-88
2021/08/09 06:22:26;;;;;;;4.85;1.50;;;;;;;11.53;80.57;91065.91;5018697;28;20120;-87
2021/08/09 06:25:07;;;;;;;2.92;1.38;;;;;;;11.63;77.42;91068.06;5018729;28;20029;-87
2021/08/09 06:27:39;;;;;;;4.22;1.52;;;;;;;11.81;78.25;91061.50;5067812;28;20048;-88
2021/08/09 06:30:17;;;;;;;3.60;1.33;;;;;;;11.94;77.82;91064.84;5034067;28;20028;-87
2021/08/09 06:32:56;;;;;;;4.70;1.52;;;;;;;12.11;78.21;91069.03;5050580;28;20021;-87
2021/08/09 06:35:31;;;;;;;3.10;1.50;;;;;;;12.22;77.42;91069.31;5035306;28;20432;-87
2021/08/09 06:38:05;;;;;;;;;;;;;;;12.31;75.43;91068.06;5034717;28;20382;-87
2021/08/09 06:40:45;;;;;;;3.03;1.23;;;;;;;12.46;77.15;91060.59;5049746;28;19908;-87
2021/08/09 06:43:17;;;;;;;5.05;1.42;;;;;;;12.60;74.79;91068.78;5035202;28;20028;-87
2021/08/09 06:45:44;;;;;;;5.53;1.70;;;;;;;12.79;73.56;91066.28;5034972;28;20404;-87
2021/08/09 06:48:19;;;;;;;3.17;1.30;;;;;;;12.87;73.59;91067.97;5021600;28;20025;-87
2021/08/09 06:50:59;;;;;;;5.28;1.50;;;;;;;13.05;72.55;91078.84;5053926;28;20108;-87
2021/08/09 06:53:37;;;;;;;3.70;1.40;;;;;;;13.24;72.03;91074.81;5038493;28;20056;-87
2021/08/09 06:56:15;;;;;;;4.68;1.50;;;;;;;13.38;71.17;91075.88;5038713;28;20025;-88
2021/08/09 06:58:52;;;;;;;4.00;1.42;;;;;;;13.46;72.72;91076.78;5054593;28;20017;-87
2021/08/09 07:01:26;;;;;;;4.60;1.42;;;;;;;13.65;71.11;91076.09;5038547;28;20025;-87
2021/08/09 07:04:05;;;;;;;4.63;1.52;;;;;;;13.74;72.67;91074.03;5054097;28;20465;-88
2021/08/09 07:06:53;;;;;;;4.40;1.30;;;;;;;13.84;72.44;91081.34;5039188;28;20021;-87
2021/08/09 07:09:29;;;;;;;4.53;1.55;;;;;;;13.86;71.23;91073.16;5054790;28;20017;-87
2021/08/09 07:12:09;;;;;;;3.55;1.23;;;;;;;13.88;69.76;91078.81;5054985;28;20401;-88
2021/08/09 07:14:41;;;;;;;3.15;1.35;;;;;;;13.83;69.49;91071.97;5038111;28;20021;-88
2021/08/09 07:17:20;;;;;;;5.95;1.52;;;;;;;13.94;70.07;91074.81;5053998;28;20025;-88
2021/08/09 07:19:59;;;;;;;3.72;1.50;;;;;;;14.04;69.88;91078.75;5040314;28;20075;-87
2021/08/09 07:22:38;;;;;;;5.80;1.25;;;;;;;14.17;70.00;91076.75;5053771;28;20058;-87
2021/08/09 07:25:18;;;;;;;3.47;1.42;;;;;;;14.27;69.87;91076.19;5054759;28;20107;-88
2021/08/09 07:27:58;;;;;;;6.88;1.92;;;;;;;14.39;70.72;91077.91;5037185;28;20029;-87
2021/08/09 07:30:33;;;;;;;6.38;1.67;;;;;;;14.47;69.47;91075.06;5038004;28;20031;-87
2021/08/09 07:33:02;;;;;;;5.20;1.85;;;;;;;14.52;68.38;91071.44;5054250;28;20028;-88
2021/08/09 07:35:33;;;;;;;5.93;1.38;;;;;;;14.37;65.54;91067.00;5020162;28;20033;-87
2021/08/09 07:38:11;;;;;;;3.85;1.15;;;;;;;14.43;63.70;91065.63;5036851;28;20484;-87
2021/08/09 07:40:46;;;;;;;4.53;1.50;;;;;;;14.42;65.25;91061.50;5052776;28;20025;-88
2021/08/09 07:43:27;;;;;;;3.72;1.33;;;;;;;14.46;65.75;91062.31;5020973;28;20059;-88
2021/08/09 07:46:03;;;;;;;3.20;1.38;;;;;;;14.69;64.47;91070.22;5036532;28;20021;-88
2021/08/09 07:48:42;;;;;;;4.85;1.30;;;;;;;14.85;64.50;91075.38;5037134;28;20025;-88
2021/08/09 07:51:21;;;;;;;5.90;1.35;;;;;;;14.87;65.37;91073.91;5052811;28;20021;-87
2021/08/09 07:53:58;;;;;;;4.20;1.65;;;;;;;14.88;61.96;91077.31;5037307;28;20017;-88
2021/08/09 07:56:33;;;;;;;3.95;1.40;;;;;;;14.62;62.18;91073.47;5036862;28;20017;-87
2021/08/09 07:59:05;;;;;;;1.88;1.10;;;;;;;14.91;61.56;91081.84;5053140;28;20032;-88
2021/08/09 08:01:45;;;;;;;6.28;1.13;;;;;;;14.90;59.39;91081.09;5038260;28;20397;-88
2021/08/09 08:04:21;;;;;;;4.20;1.30;;;;;;;14.76;60.84;91078.97;5038337;28;20024;-87
2021/08/09 08:06:52;;;;;;;3.10;1.10;;;;;;;14.83;61.41;91086.97;5053626;28;20021;-88
2021/08/09 08:09:26;;;;;;;4.38;1.40;;;;;;;15.02;60.36;91080.16;5020659;28;20485;-88
2021/08/09 08:12:01;;;;;;;6.82;1.45;;;;;;;15.07;62.07;91072.00;5054984;28;20037;-87
2021/08/09 08:14:37;;;;;;;4.30;2.13;;;;;;;14.83;61.01;91076.47;5037194;28;20108;-88
2021/08/09 08:17:11;;;;;;;2.75;1.30;;;;;;;14.76;61.01;91073.72;5052729;28;20386;-88
2021/08/09 08:19:50;;;;;;;5.70;1.13;;;;;;;14.79;61.47;91075.66;5052529;28;20052;-88
2021/08/09 08:22:29;;;;;;;5.93;1.40;;;;;;;14.89;60.93;91074.31;5037014;28;20417;-87
2021/08/09 08:25:01;;;;;;;4.43;1.23;;;;;;;14.94;59.25;91078.53;5037079;28;20029;-88
2021/08/09 08:27:35;;;;;;;2.72;1.23;;;;;;;15.18;60.48;91082.66;5033749;28;20014;-89
2021/08/09 08:30:08;;;;;;;;;;;;;;;15.11;62.84;91080.66;5034268;28;20017;-88
2021/08/09 08:32:43;;;;;;;5.15;1.30;;;;;;;15.23;63.49;91083.13;5033864;28;19909;-88
2021/08/09 08:35:21;;;;;;;4.82;1.27;;;;;;;15.35;60.88;91081.41;5019671;28;20029;-88
2021/08/09 08:37:54;;;;;;;4.00;1.27;;;;;;;15.53;61.78;91091.06;5037326;28;20406;-88
2021/08/09 08:40:27;;;;;;;3.65;1.38;;;;;;;15.54;59.92;91083.94;5040061;28;20021;-88
2021/08/09 08:43:00;;;;;;;5.40;1.45;;;;;;;15.66;59.37;91072.50;5023752;28;20098;-88
2021/08/09 08:45:37;;;;;;;2.90;1.30;;;;;;;15.83;61.39;91077.25;5033941;28;20053;-88
2021/08/09 08:48:17;;;;;;;3.70;1.50;;;;;;;16.01;60.97;91085.38;5033559;28;20029;-87
2021/08/09 08:50:49;;;;;;;5.43;1.58;;;;;;;15.98;57.53;91083.44;5017116;28;20481;-88
2021/08/09 08:53:28;;;;;;;4.07;1.85;;;;;;;15.93;59.95;91086.38;5019578;28;20108;-88
2021/08/09 08:56:01;;;;;;;4.05;1.45;;;;;;;15.87;57.94;91082.56;5035852;28;20557;-88
2021/08/09 08:58:39;;;;;;;5.78;1.40;;;;;;;15.83;58.88;91089.59;5016704;28;20037;-88
2021/08/09 09:01:18;;;;;;;3.08;1.00;;;;;;;15.81;57.89;91087.34;5017539;28;20021;-88
2021/08/09 09:03:51;;;;;;;3.72;1.52;;;;;;;15.87;57.48;91080.69;5032930;28;20022;-88
2021/08/09 09:06:27;;;;;;;4.10;1.40;;;;;;;15.68;56.12;91089.41;5037125;28;20022;-89
2021/08/09 09:09:03;;;;;;;7.13;1.13;;;;;;;15.86;57.68;91088.91;5056938;28;20025;-93
2021/08/09 09:11:38;;;;;;;3.88;1.08;;;;;;;15.97;58.50;91092.44;5032823;28;20029;-88
2021/08/09 09:14:29;;;;;;;3.42;1.33;;;;;;;16.35;56.57;91088.75;5032088;28;20124;-88
2021/08/09 09:17:07;;;;;;;3.20;1.10;;;;;;;16.62;56.85;91089.44;5034036;28;20028;-88
2021/08/09 09:19:48;;;;;;;2.75;1.00;;;;;;;16.77;55.44;91090.34;5031662;28;20401;-88
2021/08/09 09:22:31;;;;;;;3.67;1.08;;;;;;;16.64;54.29;91089.84;5032986;28;20104;-88
2021/08/09 09:25:02;;;;;;;3.13;1.13;;;;;;;16.48;52.90;91094.53;5031747;28;20033;-88
2021/08/09 09:27:42;;;;;;;5.80;1.52;;;;;;;16.59;52.90;91090.16;5051348;28;20025;-88
2021/08/09 09:30:32;;;;;;;5.82;1.05;;;;;;;16.35;55.10;91094.00;5035532;28;20032;-88
2021/08/09 09:33:11;;;;;;;4.95;1.40;;;;;;;16.54;56.40;91097.59;5034812;28;20040;-88
2021/08/09 09:35:51;;;;;;;4.43;1.27;;;;;;;17.00;59.24;91103.38;5035877;28;20029;-88
2021/08/09 09:38:18;;;;;;;4.68;1.10;;;;;;;17.28;56.02;91104.72;5019917;28;20389;-88
2021/08/09 09:40:51;;;;;;;3.78;1.10;;;;;;;17.26;53.64;91104.34;5050976;28;20033;-88
2021/08/09 09:43:31;;;;;;;3.78;1.30;;;;;;;17.15;52.46;91117.41;5035270;28;20458;-88
2021/08/09 09:46:05;;;;;;;4.40;1.20;;;;;;;17.08;51.77;91112.84;5035708;28;20021;-88
2021/08/09 09:48:45;;;;;;;3.53;1.08;;;;;;;17.13;51.85;91107.25;5052162;28;20052;-88
2021/08/09 09:51:22;;;;;;;2.72;1.10;;;;;;;17.17;49.17;91100.16;5035863;28;20029;-88
2021/08/09 09:53:57;;;;;;;2.63;1.00;;;;;;;16.95;52.62;91103.69;5051205;28;20444;-88
2021/08/09 09:56:24;;;;;;;2.92;1.20;;;;;;;17.07;51.18;91107.94;5050617;28;20127;-88
2021/08/09 09:59:06;;;;;;;4.00;1.10;;;;;;;16.96;50.54;91110.47;5035916;28;20053;-88
2021/08/09 10:01:32;;;;;;;;;;;;;;;17.00;50.97;91119.16;5035629;28;20025;-88
2021/08/09 10:04:03;;;;;;;6.03;1.30;;;;;;;16.96;52.33;91123.63;5050942;28;19919;-88
2021/08/09 10:06:35;;;;;;;3.75;1.05;;;;;;;16.90;53.50;91119.81;5034787;28;20062;-88
2021/08/09 10:09:13;;;;;;;4.03;1.15;;;;;;;17.11;51.04;91125.28;5034482;28;20051;-88
2021/08/09 10:11:48;;;;;;;3.55;1.05;;;;;;;16.94;48.82;91125.88;5035312;28;20045;-87
2021/08/09 10:14:27;;;;;;;4.10;1.30;;;;;;;17.08;52.35;91133.16;5092261;23;20132;-85
2021/08/09 10:17:06;;;;;;;2.78;1.00;;;;;;;16.93;48.21;91129.63;5032657;28;20030;-85
2021/08/09 10:19:41;;;;;;;2.55;1.10;;;;;;;17.20;48.97;91131.00;5016627;28;20022;-85
2021/08/09 10:22:12;;;;;;;2.63;1.00;;;;;;;17.10;50.90;91129.06;5000582;28;20021;-85
2021/08/09 10:24:38;;;;;;;3.53;1.05;;;;;;;17.26;47.60;91115.63;5000312;28;20104;-85
2021/08/09 10:27:20;;;;;;;2.72;0.95;;;;;;;17.17;48.45;91120.44;5032902;28;20023;-86
2021/08/09 10:30:12;;;;;;;3.15;1.15;;;;;;;17.30;49.37;91126.94;5032301;28;20116;-85
2021/08/09 10:33:03;;;;;;;5.55;1.20;;;;;;;17.61;47.29;91115.16;5034265;28;20043;-85
2021/08/09 10:35:40;;;;;;;2.78;1.00;;;;;;;17.87;50.23;91129.28;5032363;28;20017;-85
2021/08/09 10:38:28;;;;;;;3.70;1.15;;;;;;;17.64;45.84;91124.22;5034198;28;20060;-85
2021/08/09 10:41:15;;;;;;;3.20;1.02;;;;;;;17.66;48.52;91124.59;5031163;28;20109;-85
2021/08/09 10:44:21;;;;;;;2.78;1.10;;;;;;;17.72;50.20;91125.00;5032241;28;20022;-85
2021/08/09 10:46:59;;;;;;;2.92;1.20;;;;;;;17.88;48.77;91128.19;4995311;28;20037;-86
2021/08/09 10:50:00;;;;;;;3.88;1.27;;;;;;;18.12;48.95;91132.81;5031664;28;20421;-85
2021/08/09 10:52:48;;;;;;;2.63;1.10;;;;;;;18.11;48.94;91131.31;5026620;28;20044;-85
2021/08/09 10:55:45;;;;;;;3.13;1.25;;;;;;;18.10;45.40;91142.25;5016115;28;20025;-85
2021/08/09 10:58:46;;;;;;;4.10;1.17;;;;;;;18.03;46.81;91145.59;5032600;28;20037;-85
2021/08/09 11:01:23;;;;;;;4.68;1.35;;;;;;;17.98;46.40;91138.00;5032654;28;20018;-86
2021/08/09 11:04:13;;;;;;;2.97;1.02;;;;;;;17.83;47.11;91141.69;5016207;28;20025;-86
2021/08/09 11:06:59;;;;;;;3.20;1.20;;;;;;;17.75;45.14;91135.59;5049436;28;20021;-85
2021/08/09 11:09:40;;;;;;;3.65;1.10;;;;;;;17.68;45.78;91146.81;5031569;28;20025;-85
2021/08/09 11:12:28;;;;;;;3.13;1.15;;;;;;;17.95;45.77;91138.75;5032670;28;20640;-85
2021/08/09 11:15:08;;;;;;;3.42;1.17;;;;;;;18.18;44.93;91135.13;5032796;28;20033;-85
2021/08/09 11:17:49;;;;;;;3.72;1.10;;;;;;;18.23;45.81;91132.88;5033482;28;20025;-85
2021/08/09 11:20:32;;;;;;;5.35;1.58;;;;;;;18.18;45.28;91135.13;5031690;28;20378;-85
2021/08/09 11:23:18;;;;;;;6.10;1.30;;;;;;;18.25;45.16;91146.47;5032458;28;20025;-85
2021/08/09 11:25:47;;;;;;;2.72;0.90;;;;;;;18.48;43.06;91143.56;5033465;28;20028;-85
2021/08/09 11:28:27;;;;;;;3.22;1.10;;;;;;;18.35;44.32;91140.47;5032951;28;20025;-85
2021/08/09 11:31:08;;;;;;;2.80;1.20;;;;;;;18.76;44.74;91142.16;5016727;28;20029;-85
2021/08/09 11:33:47;;;;;;;2.97;1.20;;;;;;;19.09;48.09;91141.91;5020928;28;20021;-86
2021/08/09 11:36:27;;;;;;;3.53;1.20;;;;;;;19.24;44.56;91129.47;5037157;28;20025;-86
2021/08/09 11:39:08;;;;;;;2.42;1.02;;;;;;;19.25;45.61;91132.84;5005304;28;20029;-87
2021/08/09 11:41:46;;;;;;;6.40;1.20;;;;;;;19.31;44.25;91128.72;5022291;28;20031;-86
2021/08/09 11:44:24;;;;;;;4.97;1.20;;;;;;;19.02;45.62;91139.25;5019961;28;20398;-85
2021/08/09 11:47:01;;;;;;;3.50;1.00;;;;;;;18.97;45.55;91146.75;5021528;28;20117;-87
2021/08/09 11:49:34;;;;;;;3.05;1.05;;;;;;;18.98;45.18;91159.59;5021855;28;20056;-86
2021/08/09 11:52:10;;;;;;;2.13;0.95;;;;;;;19.06;44.02;91147.91;5021505;28;20021;-86
2021/08/09 11:54:49;;;;;;;2.85;0.95;;;;;;;19.03;43.74;91156.59;5021602;28;20036;-85
2021/08/09 11:57:39;;;;;;;3.38;1.20;;;;;;;19.13;45.87;91143.78;5038211;28;20390;-85
2021/08/09 12:00:19;;;;;;;2.42;1.05;;;;;;;19.28;45.17;91148.72;5038538;28;20100;-86
2021/08/09 12:03:20;;;;;;;2.83;1.20;;;;;;;18.84;43.24;91144.47;5022147;28;20026;-87
2021/08/09 12:05:55;;;;;;;4.40;1.13;;;;;;;18.88;44.52;91133.16;5021651;28;20025;-87
2021/08/09 12:08:33;;;;;;;3.60;1.30;;;;;;;18.77;45.36;91138.41;5006385;28;20029;-87
2021/08/09 12:11:14;;;;;;;2.78;1.25;;;;;;;18.37;46.93;91142.75;5037835;28;20041;-87
2021/08/09 12:13:46;;;;;;;3.63;1.10;;;;;;;18.31;45.65;91149.50;5023302;28;20029;-86
2021/08/09 12:16:24;;;;;;;4.35;1.17;;;;;;;18.12;44.48;91151.28;5038805;28;20103;-86
2021/08/09 12:19:04;;;;;;;3.03;1.20;;;;;;;18.57;45.12;91149.25;5023996;28;20029;-87
2021/08/09 12:21:38;;;;;;;4.03;1.30;;;;;;;18.88;45.06;91155.03;5046264;28;20056;-85
2021/08/09 12:24:28;;;;;;;4.63;1.40;;;;;;;19.01;44.60;91150.16;5050863;28;20020;-85
2021/08/09 12:27:24;;;;;;;3.35;1.10;;;;;;;18.80;44.42;91158.81;5019283;28;20029;-85
2021/08/09 12:30:13;;;;;;;3.50;1.20;;;;;;;19.00;44.42;91162.59;5032199;28;20444;-85
2021/08/09 12:33:03;;;;;;;2.97;1.20;;;;;;;18.76;45.16;91173.84;5033807;28;20032;-85
2021/08/09 12:35:47;;;;;;;2.70;1.20;;;;;;;18.73;44.99;91169.31;5033364;28;20021;-85